Notice: Undefined index: language in D:\xampp\htdocs\vam\index.php on line 25
Open Air Virtual

 METAR AND TAF INFORMATION
METAR FOR RJCM
ADDS - METARS form results

(2255 UTC 17 October 2019)
Data provider http://aviationweather.gov/metar/data/
 
Forecast for: RJCM (MEMAMBETSU AIRPO, JP)
Text: TAF RJCM 171711Z 1718/1900 22005KT 9999 FEW030
Forecast period: 1800 UTC 17 October 2019 to 0000 UTC 19 October 2019
Forecast type: FROM: standard forecast or significant change
Winds: from the SW (220 degrees) at 6 MPH (5 knots; 2.6 m/s)
Visibility: 6 or more miles 10+ km)
Ceiling: at least 12,000 feet AGL
Clouds: few clouds at 3000 feet AGL
Weather: no significant weather forecast for this period

 AIRPORT MAP

 RUNWAY INFORMATION
Runway 18 Runway length 8202 ft Runway width 150 ft
Runway elevation 102 ft Runway displaced threshold 0 ft Runway heading 175
Runway 36 Runway length 8202 ft Runway width 150 ft
Runway elevation 135 ft Runway displaced threshold 0 ft Runway heading 355

 AIRPORT FREQUENCIES
Type TWR Name TWR Frequency 118.85 MHZ

 AIRPORT NEAR NAVIGATION AIDS
Type VOR-DME Name Memanbetsu Frequency 110850 KHZ



Powered by Virtual Airlines Manager [v2.6.2]